Watkins, MN (55389)

7:35 PM CDT on July 24, 2016 (GMT -0500)
North of Kimball | | Change Station

Elev 1260 ft 45.35 °N, 94.34 °W | Updated 5 seconds ago

Scattered Clouds
Scattered Clouds
77.9 °F
Feels Like 80 °F
N
0.0
Wind Variable Wind from NNW
Gusts 4.0 mph

Today
High -- | Low -- °F
--% Chance of Precip.
Yesterday
High -- | Low -- °F
Precip. -- in
Pressure 29.97 in
Visibility 10.0 miles
Clouds Scattered Clouds 5500 ft
Heat Index 80 °F
Dew Point 67 °F
Humidity 69%
Rainfall 0.00 in
Snow Depth Not available.
5:53 AM 8:54 PM
Waning Gibbous, 71% visible
METAR KPEX 250013Z AUTO 29006G14KT 10SM SCT055 25/16 A2997 RMK AO2 T02510162
Pressure 29.97 in
Visibility 10.0 miles
Clouds Scattered Clouds 5500 ft
Heat Index 80 °F
Dew Point 67 °F
Humidity 69%
Rainfall 0.00 in
Snow Depth Not available.
5:53 AM 8:54 PM
Waning Gibbous, 71% visible
METAR KPEX 250013Z AUTO 29006G14KT 10SM SCT055 25/16 A2997 RMK AO2 T02510162

10-Day Weather Forecast

Almanac

Astronomy

Jul. 24, 2016 Rise Set
Actual Time
Civil Twilight
Nautical Twilight
Astronomical Twilight
Moon
Length of Visible Light
Length of Day
Tomorrow will be .
, % of the Moon is Illuminated

Today's Extremes

State Highs State Lows

Community

WunderPhotos

Upload Photos

1,927,214 photos uploaded!

WunderBlog® & News

Nearby

Air Quality

  Air Quality AQ Index Pollutant
Not available.

Snow Depth

Station Depth Elevation

Earthquake Activity

City Distance Mag. Time & Date
Minimum magnitude displayed is 2.5.

Coastal Water Temperatures

Place Temperature

Stations

Nearby Weather Stations

Station Location Temp. Windchill Dew Point Humidity Wind Precip. Elev Updated Type
                   

Watches & Warnings

There are currently no watches in effect.